Terminal Aerodrome Forecast
Issued by NWS

Home | Current Version | Previous Version | Text Only | Print | Product List | Glossary On
Versions: 1 2 3 4 5 6 7 8 9 10 11 12 13 14 15 16 17 18 19 20 21 22 23 24 25 26 27 28 29 30 31 32 33 34 35 36 37 38 39 40 41 42 43 44 45 46 47 48 49 50
000
FTUS45 KBOU 161138
TAFAPA
TAF
KAPA 161138Z 1612/1712 28006KT P6SM VCSH BKN080 OVC120
     FM161400 34006KT P6SM SCT070 BKN150
     FM161700 03010KT P6SM FEW080 SCT120
     FM170100 12007KT P6SM FEW110 SCT200
     FM170300 19008KT P6SM FEW200=

USA.gov is the U.S. government's official web portal to all federal, state and local government web resources and services.